Time;durP1;ratioP1;P1;durP2;ratioP2;P2;SDS_P1;SDS_P2;PMS_P1;PMS_P2;Temp;Humidity;BMP_temperature;BMP_pressure;BME280_temperature;BME280_humidity;BME280_pressure;Samples;Min_cycle;Max_cycle;Signal;HPM_P1;HPM_P2
2021/11/26 00:02:18;;;;;;;1.95;0.98;;;;;;;14.04;44.65;101787.94;1679197;85;21010;-53
2021/11/26 00:04:46;;;;;;;8.48;1.37;;;;;;;14.01;44.65;101785.39;1732458;82;21042;-57
2021/11/26 00:07:12;;;;;;;3.50;1.32;;;;;;;14.02;45.41;101782.30;1738639;81;20983;-56
2021/11/26 00:09:40;;;;;;;2.10;1.02;;;;;;;14.02;45.47;101779.69;1735243;81;21590;-56
2021/11/26 00:12:08;;;;;;;2.45;1.02;;;;;;;14.04;45.86;101773.54;1732037;81;21063;-56
2021/11/26 00:14:41;;;;;;;5.20;1.20;;;;;;;14.04;46.12;101774.84;1732675;81;21018;-53
2021/11/26 00:17:04;;;;;;;4.80;1.42;;;;;;;14.04;45.83;101773.54;1692593;84;21054;-60
2021/11/26 00:19:32;;;;;;;3.77;1.02;;;;;;;14.05;45.71;101777.90;1695749;84;21022;-57
2021/11/26 00:21:59;;;;;;;2.00;0.80;;;;;;;14.05;46.15;101783.13;1698525;83;21030;-56
2021/11/26 00:24:25;;;;;;;3.98;1.02;;;;;;;14.04;46.74;101777.47;1700491;84;21021;-54
2021/11/26 00:26:52;;;;;;;4.92;1.10;;;;;;;14.02;46.35;101784.48;1700114;84;21066;-59
2021/11/26 00:29:19;;;;;;;3.65;1.62;;;;;;;14.02;45.92;101776.63;1723920;81;21538;-52
2021/11/26 00:31:45;;;;;;;3.30;1.00;;;;;;;14.03;46.24;101782.73;1734303;81;21086;-54
2021/11/26 00:34:12;;;;;;;4.65;0.80;;;;;;;14.05;46.12;101779.20;1699676;83;21021;-53
2021/11/26 00:36:39;;;;;;;5.50;1.32;;;;;;;14.07;46.22;101774.80;1700616;84;21608;-56
2021/11/26 00:39:06;;;;;;;3.42;1.02;;;;;;;14.13;46.45;101769.45;1699829;84;21028;-56
2021/11/26 00:41:32;;;;;;;4.87;1.40;;;;;;;14.15;46.28;101761.11;1692861;83;20979;-56
2021/11/26 00:43:59;;;;;;;4.12;1.15;;;;;;;14.20;46.80;101760.55;1692321;83;21483;-57
2021/11/26 00:46:26;;;;;;;5.53;1.07;;;;;;;14.22;46.93;101750.91;1695096;84;21030;-55
2021/11/26 00:48:54;;;;;;;4.08;1.70;;;;;;;14.24;47.11;101741.27;1705378;83;21046;-60
2021/11/26 00:51:21;;;;;;;3.35;1.30;;;;;;;14.25;47.17;101748.25;1700143;84;21038;-60
2021/11/26 00:53:47;;;;;;;3.45;1.10;;;;;;;14.26;47.32;101746.50;1685328;84;20978;-53
2021/11/26 00:56:14;;;;;;;6.17;1.37;;;;;;;14.25;47.99;101743.01;1700039;84;21049;-54
2021/11/26 00:58:41;;;;;;;4.95;1.60;;;;;;;14.27;48.35;101746.45;1700668;84;21062;-57
2021/11/26 01:01:07;;;;;;;2.87;0.88;;;;;;;14.27;48.31;101754.31;1700626;84;20994;-56
2021/11/26 01:03:34;;;;;;;3.90;1.15;;;;;;;14.27;47.79;101746.45;1704177;83;21570;-60
2021/11/26 01:06:02;;;;;;;3.08;0.95;;;;;;;14.28;46.73;101753.43;1697447;83;21034;-55
2021/11/26 01:08:30;;;;;;;5.20;1.50;;;;;;;14.29;46.67;101736.84;1697821;83;21018;-58
2021/11/26 01:10:56;;;;;;;5.72;1.70;;;;;;;14.32;46.85;101738.07;1698168;83;21022;-60
2021/11/26 01:13:24;;;;;;;4.25;1.32;;;;;;;14.34;47.50;101741.52;1698000;83;21070;-53
2021/11/26 01:15:51;;;;;;;9.00;1.77;;;;;;;14.36;47.78;101737.11;1699394;84;21034;-59
2021/11/26 01:18:18;;;;;;;7.55;1.65;;;;;;;14.38;48.25;101737.97;1699115;83;20983;-53
2021/11/26 01:20:45;;;;;;;3.27;1.30;;;;;;;14.38;47.77;101730.55;1699744;84;21530;-56
2021/11/26 01:23:12;;;;;;;3.90;1.32;;;;;;;14.38;47.26;101726.19;1700924;83;21018;-55
2021/11/26 01:25:40;;;;;;;4.90;1.80;;;;;;;14.39;46.76;101724.41;1698819;83;20990;-53
2021/11/26 01:28:07;;;;;;;4.37;1.30;;;;;;;14.39;46.68;101712.19;1697539;83;21498;-54
2021/11/26 01:30:38;;;;;;;4.97;1.37;;;;;;;14.39;46.78;101708.25;1697997;83;21022;-56
2021/11/26 01:33:08;;;;;;;2.45;1.10;;;;;;;14.41;47.01;101715.63;1697763;83;21014;-60
2021/11/26 01:35:36;;;;;;;;;;;;;;;14.41;47.02;101707.77;1726693;82;21074;-54
2021/11/26 01:40:35;;;;;;;3.47;1.42;;;;;;;14.39;47.23;101708.25;1657651;86;21055;-53
2021/11/26 01:43:02;;;;;;;4.42;1.45;;;;;;;14.39;47.24;101714.80;1669943;85;21038;-56
2021/11/26 01:45:28;;;;;;;3.50;1.20;;;;;;;14.39;46.64;101709.56;1666844;85;21039;-52
2021/11/26 01:47:55;;;;;;;3.52;1.10;;;;;;;14.37;46.46;101719.21;1673854;85;21665;-53
2021/11/26 01:50:24;;;;;;;5.45;1.52;;;;;;;14.35;46.30;101713.15;1676926;85;21042;-57
2021/11/26 01:52:51;;;;;;;3.80;1.07;;;;;;;14.35;46.35;101715.77;1675585;85;21487;-59
2021/11/26 01:55:18;;;;;;;3.75;1.10;;;;;;;14.35;46.59;101705.30;1675675;85;21145;-54
2021/11/26 01:57:45;;;;;;;2.00;0.75;;;;;;;14.34;47.15;101710.57;1676218;85;21046;-54
2021/11/26 02:00:16;;;;;;;2.85;1.32;;;;;;;14.32;47.05;101701.89;1675213;85;21070;-57
2021/11/26 02:02:42;;;;;;;3.43;1.37;;;;;;;14.32;47.42;101701.41;1677130;85;21126;-55
2021/11/26 02:05:09;;;;;;;7.83;2.00;;;;;;;14.33;47.91;101701.84;1676999;85;21519;-52
2021/11/26 02:07:36;;;;;;;4.55;1.27;;;;;;;14.33;48.09;101701.84;1675707;85;21060;-57
2021/11/26 02:10:05;;;;;;;4.15;1.40;;;;;;;14.36;48.25;101703.07;1675128;85;21043;-54
2021/11/26 02:12:31;;;;;;;4.20;1.10;;;;;;;14.40;48.13;101704.76;1674753;85;21037;-54
2021/11/26 02:14:59;;;;;;;3.42;1.22;;;;;;;14.43;48.21;101696.81;1675195;85;21065;-57
2021/11/26 02:17:27;;;;;;;3.72;1.35;;;;;;;14.45;48.35;101695.46;1675228;85;21118;-60
2021/11/26 02:19:55;;;;;;;4.75;1.40;;;;;;;14.45;48.10;101692.41;1676013;85;21083;-59
2021/11/26 02:22:23;;;;;;;10.30;1.62;;;;;;;14.46;48.16;101685.41;1677012;85;21042;-54
2021/11/26 02:24:50;;;;;;;5.92;1.35;;;;;;;14.46;48.64;101683.67;1674762;85;21131;-56
2021/11/26 02:27:18;;;;;;;1.98;1.20;;;;;;;14.45;48.67;101681.92;1673494;85;21063;-56
2021/11/26 02:29:53;;;;;;;4.25;1.70;;;;;;;14.44;48.39;101691.14;1673133;85;21075;-53
2021/11/26 02:32:13;;;;;;;3.10;1.25;;;;;;;14.43;48.26;101688.09;1654605;85;21062;-54
2021/11/26 02:34:41;;;;;;;4.62;1.27;;;;;;;14.41;48.38;101680.28;1652316;85;21546;-56
2021/11/26 02:37:07;;;;;;;4.97;1.20;;;;;;;14.41;48.16;101671.11;1652475;85;21087;-54
2021/11/26 02:39:34;;;;;;;5.65;1.37;;;;;;;14.41;48.19;101684.20;1652816;85;21569;-58
2021/11/26 02:42:00;;;;;;;6.17;1.60;;;;;;;14.41;48.13;101684.20;1649622;85;21059;-57
2021/11/26 02:44:27;;;;;;;7.22;1.45;;;;;;;14.41;48.31;101684.20;1650578;86;21586;-56
2021/11/26 02:46:53;;;;;;;4.95;1.25;;;;;;;14.42;48.06;101672.85;1647003;85;21066;-54
2021/11/26 02:49:20;;;;;;;2.70;1.12;;;;;;;14.43;48.29;101683.72;1666996;85;21043;-54
2021/11/26 02:51:46;;;;;;;7.12;1.75;;;;;;;14.43;48.29;101694.20;1699391;82;20998;-57
2021/11/26 02:54:13;;;;;;;4.53;1.65;;;;;;;14.43;47.72;101692.02;1689563;84;21522;-54
2021/11/26 02:56:39;;;;;;;6.92;2.02;;;;;;;14.43;47.64;101696.81;1701542;82;20978;-56
2021/11/26 02:59:06;;;;;;;6.65;2.77;;;;;;;14.43;48.02;101702.49;1699377;82;21041;-57
2021/11/26 03:01:33;;;;;;;4.40;1.40;;;;;;;14.43;48.02;101699.44;1699697;82;21002;-53
2021/11/26 03:04:00;;;;;;;5.20;1.50;;;;;;;14.41;47.55;101695.98;1700283;82;21077;-56
2021/11/26 03:06:27;;;;;;;4.28;1.45;;;;;;;14.41;46.90;101693.81;1699189;82;21045;-56
2021/11/26 03:08:55;;;;;;;3.98;1.02;;;;;;;14.39;45.89;101689.92;1700440;82;21049;-53
2021/11/26 03:11:21;;;;;;;3.50;1.17;;;;;;;14.39;45.58;101691.23;1702540;82;21486;-60
2021/11/26 03:13:48;;;;;;;3.02;1.57;;;;;;;14.40;44.96;101691.66;1702194;82;21010;-58
2021/11/26 03:16:15;;;;;;;4.35;1.50;;;;;;;14.41;45.24;101695.98;1699530;82;21069;-53
2021/11/26 03:18:43;;;;;;;5.03;1.47;;;;;;;14.42;45.79;101688.56;1701034;82;21037;-53
2021/11/26 03:21:09;;;;;;;5.58;1.27;;;;;;;14.43;45.05;101684.16;1700981;84;21537;-54
2021/11/26 03:23:36;;;;;;;5.35;1.22;;;;;;;14.42;45.20;101688.56;1702142;82;21038;-55
2021/11/26 03:26:02;;;;;;;4.95;1.52;;;;;;;14.42;44.83;101675.47;1721183;82;21042;-57
2021/11/26 03:28:30;;;;;;;3.58;1.42;;;;;;;14.40;44.67;101679.88;1695848;84;20995;-58
2021/11/26 03:30:57;;;;;;;5.40;1.70;;;;;;;14.40;45.07;101676.39;1697047;84;21514;-54
2021/11/26 03:33:23;;;;;;;2.15;0.95;;;;;;;14.40;44.79;101669.41;1697867;83;21030;-53
2021/11/26 03:35:50;;;;;;;2.45;1.10;;;;;;;14.39;44.59;101670.29;1696408;82;20990;-55
2021/11/26 03:38:16;;;;;;;3.33;1.10;;;;;;;14.37;44.30;101661.61;1707230;83;21080;-53
2021/11/26 03:40:43;;;;;;;3.17;1.10;;;;;;;14.36;44.26;101662.48;1701003;84;20987;-53
2021/11/26 03:43:09;;;;;;;1.90;1.00;;;;;;;14.35;44.85;101659.47;1699411;84;21054;-57
2021/11/26 03:45:36;;;;;;;5.67;1.40;;;;;;;14.35;44.64;101663.84;1699207;84;21046;-54
2021/11/26 03:48:04;;;;;;;4.72;1.50;;;;;;;14.34;44.89;101672.14;1699749;84;21076;-54
2021/11/26 03:50:31;;;;;;;3.05;1.10;;;;;;;14.33;45.66;101680.91;1700897;84;21476;-60
2021/11/26 03:52:57;;;;;;;5.97;1.40;;;;;;;14.33;45.55;101676.11;1701076;84;21006;-57
2021/11/26 03:55:27;;;;;;;7.72;1.87;;;;;;;14.33;45.47;101675.67;1696329;84;21557;-59
2021/11/26 03:57:54;;;;;;;3.33;1.02;;;;;;;14.33;45.54;101666.50;1697880;84;21002;-56
2021/11/26 04:00:21;;;;;;;4.55;1.35;;;;;;;14.35;45.44;101669.95;1697754;84;20982;-54
2021/11/26 04:02:47;;;;;;;4.37;1.45;;;;;;;14.36;45.66;101665.11;1698154;84;21060;-53
2021/11/26 04:05:14;;;;;;;3.85;1.52;;;;;;;14.37;45.85;101656.38;1696951;84;21539;-54
2021/11/26 04:07:41;;;;;;;5.33;1.55;;;;;;;14.39;46.23;101649.78;1700018;84;20970;-57
2021/11/26 04:10:09;;;;;;;8.08;1.70;;;;;;;14.40;45.80;101655.00;1696249;84;21066;-53
2021/11/26 04:12:37;;;;;;;5.35;1.27;;;;;;;14.41;45.26;101650.61;1703410;84;21041;-53
2021/11/26 04:15:06;;;;;;;7.33;1.32;;;;;;;14.41;45.44;101654.09;1699695;84;21058;-56
2021/11/26 04:17:35;;;;;;;3.27;1.40;;;;;;;14.42;46.07;101654.96;1697791;83;21010;-57
2021/11/26 04:20:02;;;;;;;3.95;1.35;;;;;;;14.43;46.33;101646.19;1698275;83;20967;-60
2021/11/26 04:22:28;;;;;;;3.60;1.40;;;;;;;14.43;45.95;101635.28;1697785;84;21096;-54
2021/11/26 04:24:55;;;;;;;3.27;1.27;;;;;;;14.44;45.79;101633.53;1698095;84;21541;-56
2021/11/26 04:27:22;;;;;;;4.65;1.87;;;;;;;14.43;45.28;101643.13;1698449;84;20991;-55
2021/11/26 04:29:48;;;;;;;4.15;1.20;;;;;;;14.43;45.44;101639.20;1701088;84;21475;-53
2021/11/26 04:32:15;;;;;;;4.55;1.22;;;;;;;14.43;45.45;101635.28;1700951;84;20982;-57
2021/11/26 04:34:43;;;;;;;3.00;1.00;;;;;;;14.43;45.47;101631.80;1699085;84;21097;-58
2021/11/26 04:37:10;;;;;;;5.30;1.47;;;;;;;14.43;45.17;101629.17;1699497;84;21491;-59
2021/11/26 04:39:37;;;;;;;4.95;1.25;;;;;;;14.42;44.95;101623.10;1700064;84;21518;-55
2021/11/26 04:42:05;;;;;;;3.87;1.70;;;;;;;14.42;45.68;101624.85;1698225;84;21046;-53
2021/11/26 04:44:32;;;;;;;6.42;1.98;;;;;;;14.42;45.43;101624.41;1698052;84;21030;-53
2021/11/26 04:46:59;;;;;;;5.15;1.35;;;;;;;14.43;46.11;101627.42;1686813;84;21570;-54
2021/11/26 04:49:25;;;;;;;6.87;1.70;;;;;;;14.45;47.07;101619.08;1670168;83;21084;-58
2021/11/26 04:51:52;;;;;;;5.78;1.45;;;;;;;14.46;47.63;101609.03;1681806;83;21035;-62
2021/11/26 04:54:19;;;;;;;6.08;1.90;;;;;;;14.48;47.93;101610.30;1683860;83;21042;-53
2021/11/26 04:56:45;;;;;;;4.95;2.08;;;;;;;14.50;48.07;101608.06;1686272;83;21091;-60
2021/11/26 04:59:12;;;;;;;6.83;1.95;;;;;;;14.52;48.17;101612.81;1685900;83;21091;-54
2021/11/26 05:01:38;;;;;;;6.37;1.75;;;;;;;14.55;48.07;101619.27;1686905;84;21475;-54
2021/11/26 05:04:05;;;;;;;5.92;1.62;;;;;;;14.57;47.26;101612.23;1675351;83;21044;-56
2021/11/26 05:06:34;;;;;;;3.75;1.50;;;;;;;14.60;47.52;101617.41;1681808;83;21000;-56
2021/11/26 05:09:00;;;;;;;6.60;1.87;;;;;;;14.63;47.58;101619.94;1687715;83;21063;-54
2021/11/26 05:11:27;;;;;;;7.80;1.60;;;;;;;14.66;47.62;101612.02;1686510;83;21033;-54
2021/11/26 05:13:55;;;;;;;4.15;1.40;;;;;;;14.68;47.86;101618.52;1685708;83;21031;-61
2021/11/26 05:16:22;;;;;;;5.05;1.60;;;;;;;14.67;47.38;101611.10;1689921;83;21063;-57
2021/11/26 05:18:50;;;;;;;5.95;1.70;;;;;;;14.68;47.57;101617.21;1700339;83;21038;-53
2021/11/26 05:21:17;;;;;;;2.60;1.42;;;;;;;14.72;47.64;101615.37;1684732;83;21524;-57
2021/11/26 05:23:44;;;;;;;3.33;1.37;;;;;;;14.71;47.67;101612.35;1686246;83;21094;-53
2021/11/26 05:26:11;;;;;;;9.15;1.90;;;;;;;14.68;48.19;101598.88;1685761;83;21031;-53
2021/11/26 05:28:38;;;;;;;6.80;1.82;;;;;;;14.67;48.35;101591.45;1697418;82;21038;-53
2021/11/26 05:31:04;;;;;;;4.70;1.62;;;;;;;14.68;48.48;101594.50;1731879;81;21030;-56
2021/11/26 05:33:31;;;;;;;4.50;1.92;;;;;;;14.72;48.83;101586.55;1731571;81;20995;-55
2021/11/26 05:35:58;;;;;;;5.05;1.70;;;;;;;14.74;49.00;101591.30;1733931;81;21562;-56
2021/11/26 05:38:24;;;;;;;4.87;1.52;;;;;;;14.76;49.24;101595.61;1735251;81;20995;-57
2021/11/26 05:40:51;;;;;;;2.25;1.50;;;;;;;14.77;48.76;101599.09;1735116;81;21102;-57
2021/11/26 05:43:18;;;;;;;6.22;2.05;;;;;;;14.77;47.15;101596.03;1732551;81;21615;-54
2021/11/26 05:45:46;;;;;;;5.55;1.67;;;;;;;14.78;47.43;101599.48;1731700;81;21036;-56
2021/11/26 05:48:13;;;;;;;4.90;1.35;;;;;;;14.81;47.93;101596.80;1730628;82;21069;-54
2021/11/26 05:50:40;;;;;;;6.65;1.70;;;;;;;14.81;47.69;101604.67;1736553;81;21031;-54
2021/11/26 05:53:07;;;;;;;4.35;1.98;;;;;;;14.82;47.43;101606.41;1733655;81;21606;-56
2021/11/26 05:55:34;;;;;;;4.45;1.98;;;;;;;14.80;47.53;101614.72;1730539;81;21531;-56
2021/11/26 05:58:02;;;;;;;3.30;1.20;;;;;;;14.80;47.71;101609.48;1731289;81;21019;-54
2021/11/26 06:00:31;;;;;;;1.67;1.50;;;;;;;14.79;47.37;101616.95;1732579;81;21004;-58
2021/11/26 06:02:57;;;;;;;3.80;1.60;;;;;;;14.77;47.48;101608.27;1731853;81;21011;-55
2021/11/26 06:05:24;;;;;;;2.67;1.50;;;;;;;14.74;47.43;101603.09;1731179;81;21014;-56
2021/11/26 06:07:52;;;;;;;4.15;1.42;;;;;;;14.75;46.91;101604.38;1734009;81;20991;-54
2021/11/26 06:10:19;;;;;;;3.87;1.50;;;;;;;14.76;47.38;101602.60;1700946;83;20974;-59
2021/11/26 06:12:47;;;;;;;6.22;1.60;;;;;;;14.77;47.34;101596.03;1700795;83;21022;-59
2021/11/26 06:15:17;;;;;;;5.97;1.52;;;;;;;14.79;47.67;101590.75;1700731;84;21022;-57
2021/11/26 06:17:43;;;;;;;3.75;1.57;;;;;;;14.82;47.67;101586.75;1699799;84;21046;-59
2021/11/26 06:20:11;;;;;;;5.33;1.75;;;;;;;14.84;47.68;101586.27;1697675;83;21105;-57
2021/11/26 06:22:42;;;;;;;4.33;1.82;;;;;;;14.86;47.87;101589.70;1698061;83;21059;-57
2021/11/26 06:25:15;;;;;;;6.75;1.80;;;;;;;14.86;48.18;101594.95;1693128;84;21093;-55
2021/11/26 06:27:42;;;;;;;3.87;1.70;;;;;;;14.85;48.42;101588.83;1728800;81;21547;-54
2021/11/26 06:32:40;;;;;;;4.12;1.80;;;;;;;14.87;48.81;101587.03;1677329;85;21450;-59
2021/11/26 06:35:08;;;;;;;4.08;1.85;;;;;;;14.87;49.01;101589.66;1645954;87;21513;-61
2021/11/26 06:37:35;;;;;;;9.35;1.60;;;;;;;14.89;49.05;101584.36;1682980;85;21602;-57
2021/11/26 06:40:04;;;;;;;3.08;1.62;;;;;;;14.89;48.97;101582.61;1686128;85;21016;-56
2021/11/26 06:42:32;;;;;;;10.30;2.12;;;;;;;14.89;49.01;101590.47;1686138;85;21085;-56
2021/11/26 06:44:58;;;;;;;10.48;2.08;;;;;;;14.92;49.25;101586.92;1685864;85;21472;-52
2021/11/26 06:47:25;;;;;;;4.95;1.85;;;;;;;14.95;49.64;101593.37;1686110;85;21066;-53
2021/11/26 06:49:51;;;;;;;5.40;1.92;;;;;;;14.97;49.38;101594.19;1685933;85;21046;-58
2021/11/26 06:52:18;;;;;;;4.50;2.17;;;;;;;14.99;49.15;101602.43;1650288;87;21605;-53
2021/11/26 06:54:44;;;;;;;5.97;1.70;;;;;;;15.03;48.88;101600.14;1685882;85;21020;-59
2021/11/26 06:57:11;;;;;;;10.90;3.30;;;;;;;15.06;48.99;101593.96;1685774;85;21034;-53
2021/11/26 06:59:37;;;;;;;6.72;2.22;;;;;;;15.10;49.23;101596.91;1686031;85;21519;-55
2021/11/26 07:02:06;;;;;;;3.67;1.47;;;;;;;15.12;49.69;101595.97;1685766;85;21110;-53
2021/11/26 07:04:34;;;;;;;3.22;1.60;;;;;;;15.14;49.26;101585.44;1683563;85;21102;-55
2021/11/26 07:07:02;;;;;;;4.33;1.57;;;;;;;15.13;49.08;101584.56;1685984;85;21141;-53
2021/11/26 07:09:30;;;;;;;11.00;2.20;;;;;;;15.13;48.91;101575.39;1685879;85;21040;-55
2021/11/26 07:11:57;;;;;;;9.18;2.02;;;;;;;15.14;49.10;101574.95;1686002;85;21538;-56
2021/11/26 07:14:25;;;;;;;5.67;2.35;;;;;;;15.15;49.62;101577.97;1685856;85;21070;-55
2021/11/26 07:16:53;;;;;;;10.28;1.77;;;;;;;15.17;49.68;101585.33;1685775;85;21078;-53
2021/11/26 07:19:20;;;;;;;7.78;2.40;;;;;;;15.17;50.00;101590.58;1685828;85;21050;-57
2021/11/26 07:21:47;;;;;;;7.72;1.75;;;;;;;15.19;50.28;101587.46;1685800;85;21048;-54
2021/11/26 07:24:14;;;;;;;6.67;1.98;;;;;;;15.20;50.19;101585.27;1686267;85;21063;-57
2021/11/26 07:26:41;;;;;;;6.75;2.05;;;;;;;15.23;49.53;101579.92;1683361;85;21546;-54
2021/11/26 07:29:07;;;;;;;3.80;1.70;;;;;;;15.23;49.25;101574.23;1679038;85;21125;-53
2021/11/26 07:31:33;;;;;;;5.47;1.72;;;;;;;15.25;48.95;101567.66;1679038;85;20998;-56
2021/11/26 07:34:00;;;;;;;3.47;1.40;;;;;;;15.26;48.77;101571.98;1678840;85;21610;-56
2021/11/26 07:36:29;;;;;;;6.08;1.90;;;;;;;15.25;48.43;101570.28;1728817;81;21089;-53
2021/11/26 07:38:56;;;;;;;3.55;1.60;;;;;;;15.25;48.26;101567.66;1732843;81;21058;-57
2021/11/26 07:41:23;;;;;;;3.47;1.50;;;;;;;15.26;48.38;101564.12;1732877;82;21071;-53
2021/11/26 07:43:50;;;;;;;4.72;1.98;;;;;;;15.27;48.27;101565.85;1735430;81;21098;-58
2021/11/26 07:46:17;;;;;;;6.50;1.87;;;;;;;15.25;48.02;101561.94;1734020;81;21058;-55
2021/11/26 07:48:43;;;;;;;5.55;1.98;;;;;;;15.24;48.07;101564.17;1711436;81;21642;-54
2021/11/26 07:51:10;;;;;;;4.53;1.85;;;;;;;15.25;48.21;101563.73;1695698;82;21061;-53
2021/11/26 07:53:36;;;;;;;5.70;2.20;;;;;;;15.24;47.98;101560.23;1723757;81;21463;-57
2021/11/26 07:56:04;;;;;;;3.67;1.70;;;;;;;15.23;48.24;101572.92;1735592;81;21021;-54
2021/11/26 07:58:32;;;;;;;2.87;1.27;;;;;;;15.25;48.02;101575.52;1734041;81;21063;-54
2021/11/26 08:00:58;;;;;;;1.98;1.50;;;;;;;15.25;47.31;101571.59;1733398;81;20981;-53
2021/11/26 08:03:26;;;;;;;12.28;3.08;;;;;;;15.24;46.56;101579.03;1732814;81;20983;-57
2021/11/26 08:05:53;;;;;;;19.52;5.00;;;;;;;15.24;45.99;101575.10;1725312;81;21042;-56
2021/11/26 08:08:21;;;;;;;7.10;2.72;;;;;;;15.26;45.86;101578.54;1732535;81;21039;-53
2021/11/26 08:10:47;;;;;;;6.00;2.30;;;;;;;15.26;46.09;101566.73;1733498;82;21035;-56
2021/11/26 08:13:14;;;;;;;3.20;1.60;;;;;;;15.28;45.90;101576.73;1736582;80;21543;-59
2021/11/26 08:15:40;;;;;;;6.60;1.50;;;;;;;15.28;45.56;101563.62;1736139;81;20979;-55
2021/11/26 08:18:08;;;;;;;8.98;2.10;;;;;;;15.30;45.27;101568.38;1732703;81;21023;-54
2021/11/26 08:20:37;;;;;;;6.45;1.98;;;;;;;15.31;45.73;101576.66;1732771;81;21091;-57
2021/11/26 08:23:04;;;;;;;6.03;2.22;;;;;;;15.31;46.62;101577.97;1731501;81;21011;-60
2021/11/26 08:25:32;;;;;;;4.55;1.55;;;;;;;15.30;46.99;101574.48;1724890;82;21083;-55
2021/11/26 08:27:58;;;;;;;8.58;2.27;;;;;;;15.30;47.72;101570.99;1734303;81;21070;-60
2021/11/26 08:30:25;;;;;;;9.33;2.08;;;;;;;15.30;48.23;101571.86;1734892;81;20944;-56
2021/11/26 08:32:53;;;;;;;5.45;2.25;;;;;;;15.30;48.31;101573.62;1731825;81;21011;-53
2021/11/26 08:35:21;;;;;;;7.17;2.33;;;;;;;15.30;48.08;101564.00;1730695;81;21015;-55
2021/11/26 08:37:48;;;;;;;5.78;2.10;;;;;;;15.30;48.19;101546.95;1731130;81;21034;-56
2021/11/26 08:40:16;;;;;;;4.97;2.65;;;;;;;15.34;48.64;101538.53;1730850;81;20975;-58
2021/11/26 08:42:44;;;;;;;5.37;2.47;;;;;;;15.36;49.14;101528.86;1731747;81;21031;-54
2021/11/26 08:45:11;;;;;;;9.73;2.58;;;;;;;15.41;49.69;101534.84;1735038;81;21062;-54
2021/11/26 08:47:40;;;;;;;10.10;2.62;;;;;;;15.45;49.85;101529.95;1734842;81;21062;-53
2021/11/26 08:50:11;;;;;;;5.40;2.27;;;;;;;15.48;49.84;101528.09;1728354;81;21090;-57
2021/11/26 08:52:37;;;;;;;6.40;2.10;;;;;;;15.52;49.71;101520.97;1725298;82;21062;-57
2021/11/26 08:55:07;;;;;;;5.90;1.90;;;;;;;15.57;49.28;101512.98;1720725;81;21557;-57
2021/11/26 08:57:35;;;;;;;5.28;1.60;;;;;;;15.58;48.65;101514.71;1733623;81;21010;-59
2021/11/26 09:00:04;;;;;;;5.25;1.87;;;;;;;15.62;48.29;101510.61;1733544;81;21605;-54
2021/11/26 09:02:32;;;;;;;3.72;2.00;;;;;;;15.64;48.09;101506.17;1731234;81;21132;-54
2021/11/26 09:04:58;;;;;;;3.15;1.35;;;;;;;15.64;47.44;101497.47;1732361;81;21077;-53
2021/11/26 09:07:25;;;;;;;9.00;1.87;;;;;;;15.63;46.99;101488.73;1731325;82;21022;-59
2021/11/26 09:09:52;;;;;;;6.53;1.52;;;;;;;15.62;46.99;101486.16;1734747;81;21147;-57
2021/11/26 09:12:22;;;;;;;5.72;1.60;;;;;;;15.61;47.32;101480.05;1733693;81;20999;-54
2021/11/26 09:14:49;;;;;;;4.33;1.98;;;;;;;15.61;47.80;101472.62;1731596;81;21065;-59
2021/11/26 09:17:19;;;;;;;8.00;2.85;;;;;;;15.59;48.00;101473.99;1730602;81;21046;-54
2021/11/26 09:19:46;;;;;;;8.48;3.05;;;;;;;15.57;48.03;101465.76;1730470;81;21019;-54
2021/11/26 09:22:12;;;;;;;5.05;2.50;;;;;;;15.56;48.31;101458.33;1731052;81;21031;-53
2021/11/26 09:24:39;;;;;;;4.00;2.35;;;;;;;15.55;48.35;101454.02;1729167;81;21027;-60
2021/11/26 09:27:06;;;;;;;6.03;2.35;;;;;;;15.54;48.50;101452.28;1730869;81;21515;-56
2021/11/26 09:29:32;;;;;;;6.00;1.98;;;;;;;15.55;48.85;101451.39;1725489;81;21027;-53
2021/11/26 09:32:01;;;;;;;6.58;1.57;;;;;;;15.55;48.60;101448.77;1729622;81;21086;-54
2021/11/26 09:34:28;;;;;;;4.80;1.90;;;;;;;15.58;48.20;101448.65;1724157;81;21512;-57
2021/11/26 09:36:56;;;;;;;5.08;2.40;;;;;;;15.58;48.42;101447.34;1723660;82;21086;-57
2021/11/26 09:39:23;;;;;;;3.87;1.80;;;;;;;15.60;48.68;101444.22;1726414;81;21042;-59
2021/11/26 09:41:50;;;;;;;6.35;2.08;;;;;;;15.62;48.83;101435.84;1720079;81;21070;-57
2021/11/26 09:44:17;;;;;;;7.20;2.30;;;;;;;15.64;48.87;101436.66;1722241;81;21109;-58
2021/11/26 09:46:47;;;;;;;6.62;2.33;;;;;;;15.64;48.91;101437.96;1727420;81;21039;-60
2021/11/26 09:49:16;;;;;;;7.87;1.90;;;;;;;15.66;48.83;101438.77;1732842;81;21101;-54
2021/11/26 09:51:42;;;;;;;8.73;2.80;;;;;;;15.67;48.86;101429.14;1700461;84;21066;-57
2021/11/26 09:54:08;;;;;;;10.23;3.65;;;;;;;15.67;48.75;101423.45;1701929;84;21018;-57
2021/11/26 09:56:36;;;;;;;6.35;1.95;;;;;;;15.69;48.55;101419.45;1700439;84;21027;-59
2021/11/26 09:59:02;;;;;;;5.67;1.50;;;;;;;15.67;47.97;101414.27;1697458;83;20971;-58
2021/11/26 10:01:29;;;;;;;4.35;1.72;;;;;;;15.66;47.84;101411.70;1698247;83;21010;-58
2021/11/26 10:03:56;;;;;;;5.20;1.77;;;;;;;15.63;48.21;101402.16;1697543;84;21538;-58
2021/11/26 10:06:40;;;;;;;3.70;1.70;;;;;;;15.60;48.55;101389.13;1698050;84;20990;-55
2021/11/26 10:09:14;;;;;;;5.17;1.80;;;;;;;15.59;47.92;101382.63;1684725;84;21471;-56
2021/11/26 10:11:54;;;;;;;6.22;2.05;;;;;;;15.56;47.40;101382.27;1697951;83;21085;-56
2021/11/26 10:14:29;;;;;;;5.55;1.72;;;;;;;15.57;47.38;101372.19;1645096;85;21019;-54
2021/11/26 10:17:15;;;;;;;4.42;1.75;;;;;;;15.58;47.39;101369.95;1641728;85;21039;-57
2021/11/26 10:20:01;;;;;;;4.80;1.77;;;;;;;15.59;47.34;101370.82;1586685;90;21546;-57
2021/11/26 10:22:34;;;;;;;2.95;1.50;;;;;;;15.61;47.45;101365.06;1611478;88;21074;-54
2021/11/26 10:25:16;;;;;;;6.53;1.80;;;;;;;15.60;47.63;101356.81;1612496;88;21119;-57
2021/11/26 10:28:02;;;;;;;;;;;;;;;15.58;47.92;101354.70;1607987;89;21106;-58
2021/11/26 10:30:36;;;;;;;3.92;1.67;;;;;;;15.55;48.54;101356.09;1604524;89;20115;-59
2021/11/26 10:33:23;;;;;;;3.98;2.17;;;;;;;15.53;49.16;101350.91;1602617;89;21039;-54
2021/11/26 10:35:54;;;;;;;4.58;2.10;;;;;;;15.46;49.95;101352.86;1605888;89;21117;-62
2021/11/26 10:38:27;;;;;;;5.30;2.58;;;;;;;15.49;50.51;101357.16;1605249;89;21074;-54
2021/11/26 10:40:58;;;;;;;6.45;2.10;;;;;;;15.50;50.80;101360.16;1618238;88;21155;-57
2021/11/26 10:46:27;;;;;;;8.90;3.50;;;;;;;15.50;50.60;101361.95;1557266;92;21122;-55
2021/11/26 10:48:51;;;;;;;6.00;2.58;;;;;;;15.51;50.33;101359.72;1555781;92;21204;-54
2021/11/26 10:59:10;;;;;;;5.17;2.40;;;;;;;15.57;48.52;101324.97;1558545;92;21069;-55
2021/11/26 11:01:45;;;;;;;6.47;3.37;;;;;;;15.62;48.16;101309.92;1558352;92;21108;-54
2021/11/26 11:04:21;;;;;;;6.10;2.22;;;;;;;15.63;48.31;101309.03;1560472;92;21065;-53
2021/11/26 11:07:06;;;;;;;7.78;1.98;;;;;;;15.67;48.48;101301.45;1559058;92;21069;-58
2021/11/26 11:09:41;;;;;;;5.47;2.30;;;;;;;15.69;48.56;101290.90;1494743;94;21098;-56
2021/11/26 11:12:09;;;;;;;11.95;2.70;;;;;;;15.69;48.59;101283.89;1499348;95;21098;-57
2021/11/26 11:14:36;;;;;;;9.85;2.50;;;;;;;15.70;48.84;101271.64;1514018;94;21095;-54
2021/11/26 11:17:02;;;;;;;3.80;1.70;;;;;;;15.70;49.45;101263.77;1500675;94;21117;-53
2021/11/26 11:19:29;;;;;;;9.88;2.00;;;;;;;15.70;49.67;101254.14;1513210;95;21204;-53
2021/11/26 11:21:57;;;;;;;7.87;2.52;;;;;;;15.70;49.69;101253.27;1511884;93;21732;-56
2021/11/26 11:24:24;;;;;;;4.35;2.10;;;;;;;15.70;49.62;101262.02;1518951;93;21064;-53
2021/11/26 11:26:51;;;;;;;4.37;2.37;;;;;;;15.70;49.79;101262.45;1526737;93;21585;-55
2021/11/26 11:29:21;;;;;;;6.65;1.52;;;;;;;15.69;49.72;101249.78;1526177;94;21145;-59
2021/11/26 11:31:47;;;;;;;4.67;1.67;;;;;;;15.70;49.31;101238.40;1526681;94;21558;-58
2021/11/26 11:34:18;;;;;;;5.83;2.22;;;;;;;15.70;49.08;101234.46;1526946;94;21150;-56
2021/11/26 11:36:45;;;;;;;5.12;1.80;;;;;;;15.71;49.28;101234.84;1528742;92;21089;-53
2021/11/26 11:39:11;;;;;;;4.00;1.50;;;;;;;15.71;49.11;101229.60;1569876;87;21578;-58
2021/11/26 11:44:30;;;;;;;6.97;2.00;;;;;;;15.71;49.03;101213.86;1617260;88;21586;-58
2021/11/26 11:46:58;;;;;;;7.87;2.40;;;;;;;15.73;49.18;101221.22;1652452;84;21093;-57